Time;durP1;ratioP1;P1;durP2;ratioP2;P2;SDS_P1;SDS_P2;PMS_P1;PMS_P2;Temp;Humidity;BMP_temperature;BMP_pressure;BME280_temperature;BME280_humidity;BME280_pressure;Samples;Min_cycle;Max_cycle;Signal;HPM_P1;HPM_P2
2023/06/20 00:00:25;;;;;;;5.47;4.97;;;22.80;99.90;;;;;;4972076;28;20456;-70
2023/06/20 00:02:51;;;;;;;5.60;4.70;;;22.70;99.90;;;;;;4973357;28;20488;-70
2023/06/20 00:05:18;;;;;;;7.10;5.60;;;22.70;99.90;;;;;;4971536;28;20459;-70
2023/06/20 00:07:46;;;;;;;7.23;5.23;;;22.80;99.90;;;;;;4971415;28;20525;-70
2023/06/20 00:10:13;;;;;;;9.87;6.03;;;22.80;99.90;;;;;;4972137;28;20514;-69
2023/06/20 00:12:40;;;;;;;6.07;5.20;;;22.80;99.90;;;;;;4971483;28;20472;-70
2023/06/20 00:15:08;;;;;;;9.70;5.50;;;22.70;99.90;;;;;;4971719;28;20456;-70
2023/06/20 00:17:34;;;;;;;7.80;5.60;;;22.70;99.90;;;;;;4971567;28;20554;-70
2023/06/20 00:20:06;;;;;;;6.30;5.67;;;22.70;99.90;;;;;;4972592;28;20515;-70
2023/06/20 00:22:34;;;;;;;6.90;6.30;;;22.70;99.90;;;;;;4971369;28;21032;-71
2023/06/20 00:25:03;;;;;;;9.00;5.57;;;22.70;99.90;;;;;;4979659;28;20494;-71
2023/06/20 00:27:30;;;;;;;6.73;5.77;;;22.70;99.90;;;;;;4972729;28;20460;-70
2023/06/20 00:29:56;;;;;;;8.67;6.30;;;22.70;99.90;;;;;;4975411;28;20515;-70
2023/06/20 00:32:23;;;;;;;6.27;5.67;;;22.60;99.90;;;;;;4975816;28;20554;-71
2023/06/20 00:34:50;;;;;;;11.00;7.13;;;22.60;99.90;;;;;;4975355;28;21026;-70
2023/06/20 00:37:16;;;;;;;6.93;6.13;;;22.60;99.90;;;;;;4976585;28;20487;-70
2023/06/20 00:39:43;;;;;;;6.73;6.03;;;22.70;99.90;;;;;;4988707;28;20451;-70
2023/06/20 00:42:19;;;;;;;7.60;5.80;;;22.50;99.90;;;;;;4976192;28;20460;-70
2023/06/20 00:44:45;;;;;;;9.80;6.70;;;22.50;99.90;;;;;;4975273;28;20468;-70
2023/06/20 00:47:15;;;;;;;8.20;5.43;;;22.50;99.90;;;;;;4974971;28;20959;-70
2023/06/20 00:49:42;;;;;;;7.10;6.00;;;22.40;99.90;;;;;;4981819;28;20505;-70
2023/06/20 00:52:09;;;;;;;7.83;6.10;;;22.50;99.90;;;;;;4976119;28;20498;-70
2023/06/20 00:54:36;;;;;;;6.10;5.60;;;22.30;99.90;;;;;;4976797;28;20460;-70
2023/06/20 00:57:03;;;;;;;11.73;5.20;;;22.30;99.90;;;;;;4978279;28;20911;-70
2023/06/20 00:59:31;;;;;;;8.47;5.90;;;22.20;99.90;;;;;;4975315;28;20463;-70
2023/06/20 01:01:57;;;;;;;6.37;5.50;;;22.20;99.90;;;;;;4974894;28;20523;-70
2023/06/20 01:04:24;;;;;;;6.33;5.77;;;22.20;99.90;;;;;;4974837;28;20472;-70
2023/06/20 01:06:59;;;;;;;8.83;6.37;;;22.10;99.90;;;;;;4977930;28;20459;-70
2023/06/20 01:09:31;;;;;;;11.17;6.50;;;22.10;99.90;;;;;;4974606;28;20455;-70
2023/06/20 01:12:03;;;;;;;8.83;6.07;;;22.00;99.90;;;;;;4977874;28;20471;-70
2023/06/20 01:14:37;;;;;;;9.50;6.47;;;22.00;99.90;;;;;;4975153;28;20481;-70
2023/06/20 01:17:10;;;;;;;8.07;6.60;;;21.90;99.90;;;;;;4984135;28;20463;-69
2023/06/20 01:19:54;;;;;;;12.90;7.60;;;21.70;99.90;;;;;;4980419;28;20859;-69
2023/06/20 01:22:41;;;;;;;8.43;7.40;;;21.50;99.90;;;;;;4978197;28;20447;-70
2023/06/20 01:25:12;;;;;;;10.47;7.63;;;21.40;99.90;;;;;;4977238;28;20971;-70
2023/06/20 01:27:47;;;;;;;13.90;7.83;;;21.30;99.90;;;;;;4979998;28;20448;-70
2023/06/20 01:30:21;;;;;;;8.70;7.30;;;21.20;99.90;;;;;;4974592;28;20657;-70
2023/06/20 01:32:49;;;;;;;8.70;7.43;;;21.10;99.90;;;;;;4974176;28;20473;-70
2023/06/20 01:35:19;;;;;;;9.00;8.20;;;21.00;99.90;;;;;;4974732;28;20865;-69
2023/06/20 01:37:52;;;;;;;20.33;8.23;;;21.00;99.90;;;;;;4979580;28;20546;-70
2023/06/20 01:40:21;;;;;;;12.10;9.13;;;20.90;99.90;;;;;;4973897;28;20511;-70
2023/06/20 01:42:49;;;;;;;9.87;8.87;;;21.00;99.90;;;;;;4982922;28;20571;-70
2023/06/20 01:45:16;;;;;;;10.87;7.70;;;20.90;99.90;;;;;;4981347;28;20902;-70
2023/06/20 01:47:45;;;;;;;12.13;8.60;;;20.90;99.90;;;;;;4974306;28;20448;-70
2023/06/20 01:50:13;;;;;;;9.50;8.40;;;20.90;99.90;;;;;;4973766;28;20868;-70
2023/06/20 01:52:41;;;;;;;11.33;9.00;;;20.90;99.90;;;;;;4978896;28;20512;-70
2023/06/20 01:55:11;;;;;;;13.07;10.00;;;20.90;99.90;;;;;;4976946;28;20506;-69
2023/06/20 01:57:38;;;;;;;12.37;9.87;;;20.90;99.90;;;;;;4973997;28;20483;-70
2023/06/20 02:00:09;;;;;;;12.80;9.17;;;20.90;99.90;;;;;;4977564;28;20455;-70
2023/06/20 02:02:36;;;;;;;17.50;9.17;;;20.90;99.90;;;;;;4979526;28;20851;-70
2023/06/20 02:05:05;;;;;;;12.47;8.83;;;20.90;99.90;;;;;;4973845;28;20937;-70
2023/06/20 02:07:32;;;;;;;13.83;9.40;;;20.90;99.90;;;;;;4973360;28;20452;-70
2023/06/20 02:10:00;;;;;;;12.97;9.77;;;20.80;99.90;;;;;;4981992;28;20467;-70
2023/06/20 02:12:29;;;;;;;11.27;9.93;;;20.90;99.90;;;;;;4973478;28;20487;-70
2023/06/20 02:14:57;;;;;;;10.70;9.43;;;20.90;99.90;;;;;;4973651;28;20456;-69
2023/06/20 02:17:24;;;;;;;12.43;10.30;;;20.90;99.90;;;;;;4977716;28;20460;-69
2023/06/20 02:19:51;;;;;;;13.63;10.00;;;20.90;99.90;;;;;;4978364;28;20519;-70
2023/06/20 02:22:21;;;;;;;10.77;9.63;;;20.90;99.90;;;;;;4973264;28;20956;-70
2023/06/20 02:24:49;;;;;;;10.67;9.07;;;20.80;99.90;;;;;;4973322;28;20452;-69
2023/06/20 02:27:18;;;;;;;12.53;9.37;;;20.80;99.90;;;;;;4974008;28;20979;-70
2023/06/20 02:29:47;;;;;;;15.60;9.50;;;20.80;99.90;;;;;;4973254;28;20464;-69
2023/06/20 02:32:15;;;;;;;11.50;9.40;;;20.80;99.90;;;;;;4972843;28;20507;-70
2023/06/20 02:34:45;;;;;;;11.03;9.07;;;20.80;99.90;;;;;;4978742;28;21001;-69
2023/06/20 02:37:13;;;;;;;11.30;9.20;;;20.80;99.90;;;;;;4973597;28;20819;-69
2023/06/20 02:39:40;;;;;;;17.13;11.23;;;20.70;99.90;;;;;;4984675;28;20907;-70
2023/06/20 02:42:07;;;;;;;11.97;9.57;;;20.70;99.90;;;;;;4974784;28;20460;-70
2023/06/20 02:44:33;;;;;;;10.50;9.50;;;20.70;99.90;;;;;;4972987;28;20456;-70
2023/06/20 02:47:13;;;;;;;10.43;9.23;;;20.60;99.90;;;;;;4973169;28;20464;-70
2023/06/20 02:49:45;;;;;;;10.03;8.83;;;20.50;99.90;;;;;;4979136;28;20446;-69
2023/06/20 02:52:21;;;;;;;12.27;8.93;;;20.50;99.90;;;;;;4980730;28;20959;-70
2023/06/20 02:54:53;;;;;;;10.70;8.40;;;20.50;99.90;;;;;;4980060;28;20456;-70
2023/06/20 02:57:22;;;;;;;14.53;10.80;;;20.40;99.90;;;;;;4974180;28;20456;-70
2023/06/20 02:59:55;;;;;;;13.43;11.23;;;20.30;99.90;;;;;;4975285;28;20763;-69
2023/06/20 03:02:25;;;;;;;16.30;11.93;;;20.20;99.90;;;;;;4972818;28;20881;-69
2023/06/20 03:04:56;;;;;;;16.13;12.23;;;19.90;99.90;;;;;;4972691;28;21023;-69
2023/06/20 03:07:25;;;;;;;25.43;11.87;;;19.80;99.90;;;;;;4972496;28;20452;-69
2023/06/20 03:09:52;;;;;;;15.67;11.90;;;19.70;99.90;;;;;;4979274;28;20461;-69
2023/06/20 03:12:19;;;;;;;14.90;12.70;;;19.70;99.90;;;;;;4972490;28;20883;-70
2023/06/20 03:14:45;;;;;;;21.10;11.63;;;19.60;99.90;;;;;;4984046;28;20464;-69
2023/06/20 03:17:12;;;;;;;15.33;12.50;;;19.70;99.90;;;;;;4972385;28;20515;-69
2023/06/20 03:19:40;;;;;;;15.97;12.73;;;19.70;99.90;;;;;;4978246;28;20491;-69
2023/06/20 03:22:06;;;;;;;15.40;11.60;;;19.80;99.90;;;;;;4972411;28;20460;-69
2023/06/20 03:24:35;;;;;;;16.27;11.63;;;19.80;99.90;;;;;;4978672;28;20472;-69
2023/06/20 03:27:01;;;;;;;14.93;11.80;;;19.80;99.90;;;;;;4987853;28;20456;-69
2023/06/20 03:29:28;;;;;;;15.10;11.20;;;19.80;99.90;;;;;;4972371;28;20460;-70
2023/06/20 03:31:54;;;;;;;14.27;11.20;;;19.90;99.90;;;;;;4972302;28;20435;-69
2023/06/20 03:34:21;;;;;;;12.20;10.40;;;20.00;99.90;;;;;;4979992;28;20472;-69
2023/06/20 03:36:49;;;;;;;17.93;11.87;;;20.00;99.90;;;;;;4972432;28;20460;-69
2023/06/20 03:39:16;;;;;;;12.53;11.20;;;20.00;99.90;;;;;;4981019;28;21067;-69
2023/06/20 03:41:42;;;;;;;12.17;10.90;;;20.00;99.90;;;;;;4976879;28;20455;-69
2023/06/20 03:44:09;;;;;;;22.63;11.57;;;20.00;99.90;;;;;;4975937;28;20476;-69
2023/06/20 03:46:35;;;;;;;20.10;11.27;;;20.00;99.90;;;;;;4971941;28;20511;-69
2023/06/20 03:49:02;;;;;;;16.80;11.17;;;20.00;99.90;;;;;;4977286;28;20942;-69
2023/06/20 03:51:29;;;;;;;14.10;10.67;;;19.80;99.90;;;;;;4976414;28;20462;-69
2023/06/20 03:53:57;;;;;;;13.00;11.27;;;19.90;99.90;;;;;;4976396;28;20483;-69
2023/06/20 03:56:23;;;;;;;14.07;10.77;;;19.80;99.90;;;;;;4983396;28;20447;-69
2023/06/20 03:58:50;;;;;;;13.27;11.87;;;19.80;99.90;;;;;;4983315;28;20549;-69
2023/06/20 04:01:16;;;;;;;14.27;11.03;;;19.80;99.90;;;;;;4973601;28;20825;-69
2023/06/20 04:03:43;;;;;;;16.00;12.47;;;19.80;99.90;;;;;;4978337;28;20585;-69
2023/06/20 04:06:10;;;;;;;13.60;11.40;;;19.80;99.90;;;;;;4983213;28;20510;-69
2023/06/20 04:08:37;;;;;;;14.17;11.67;;;19.80;99.90;;;;;;4977411;28;20459;-69
2023/06/20 04:11:05;;;;;;;16.60;12.50;;;19.80;99.90;;;;;;4971447;28;20952;-69
2023/06/20 04:13:32;;;;;;;14.93;11.63;;;19.80;99.90;;;;;;4972482;28;20478;-69
2023/06/20 04:15:59;;;;;;;17.50;12.37;;;19.80;99.90;;;;;;4972500;28;20456;-69
2023/06/20 04:18:26;;;;;;;17.90;11.77;;;19.80;99.90;;;;;;4973786;28;20558;-69
2023/06/20 04:20:52;;;;;;;13.07;11.50;;;19.80;99.90;;;;;;4979412;28;20518;-69
2023/06/20 04:23:19;;;;;;;14.00;10.93;;;19.80;99.90;;;;;;4976095;28;20480;-70
2023/06/20 04:25:45;;;;;;;14.83;12.70;;;19.70;99.90;;;;;;4983869;28;20459;-70
2023/06/20 04:28:17;;;;;;;17.07;12.40;;;19.80;99.90;;;;;;4979273;28;20487;-73
2023/06/20 04:30:44;;;;;;;14.13;11.80;;;19.90;99.90;;;;;;4985100;28;20496;-72
2023/06/20 04:33:10;;;;;;;13.50;10.83;;;19.90;99.90;;;;;;4978873;28;20538;-72
2023/06/20 04:35:40;;;;;;;15.40;12.47;;;19.80;99.90;;;;;;4984883;28;20475;-72
2023/06/20 04:38:07;;;;;;;15.03;12.60;;;19.80;99.90;;;;;;4986493;28;20997;-72
2023/06/20 04:40:34;;;;;;;16.67;12.10;;;19.80;99.90;;;;;;4985575;28;20511;-72
2023/06/20 04:43:00;;;;;;;15.63;12.57;;;19.80;99.90;;;;;;4971206;28;20503;-72
2023/06/20 04:45:29;;;;;;;16.80;12.90;;;19.80;99.90;;;;;;4971533;28;20493;-72
2023/06/20 04:47:56;;;;;;;17.80;13.20;;;19.80;99.90;;;;;;4971575;28;20470;-72
2023/06/20 04:50:23;;;;;;;15.20;12.90;;;19.80;99.90;;;;;;4975401;28;20452;-72
2023/06/20 04:52:50;;;;;;;16.13;12.30;;;19.90;99.90;;;;;;4978248;28;20480;-72
2023/06/20 04:55:16;;;;;;;15.67;12.80;;;20.00;99.90;;;;;;4971896;28;20452;-73
2023/06/20 04:57:43;;;;;;;14.80;12.83;;;20.00;99.90;;;;;;4976887;28;20823;-73
2023/06/20 05:00:13;;;;;;;20.17;12.93;;;20.00;99.90;;;;;;4972585;28;20491;-72
2023/06/20 05:02:42;;;;;;;18.30;13.40;;;20.00;99.90;;;;;;4972557;28;20871;-72
2023/06/20 05:05:09;;;;;;;14.63;12.67;;;20.00;99.90;;;;;;4972902;28;20467;-72
2023/06/20 05:07:35;;;;;;;16.93;14.30;;;20.00;99.90;;;;;;4970832;28;20464;-70
2023/06/20 05:10:02;;;;;;;22.83;14.20;;;20.00;99.90;;;;;;4970983;28;20452;-70
2023/06/20 05:12:29;;;;;;;19.23;13.60;;;20.00;99.90;;;;;;4978607;28;20483;-69
2023/06/20 05:14:56;;;;;;;19.00;13.70;;;20.00;99.90;;;;;;4972229;28;20456;-69
2023/06/20 05:17:22;;;;;;;18.03;14.33;;;20.00;99.90;;;;;;4978312;28;20577;-69
2023/06/20 05:19:50;;;;;;;21.20;14.30;;;20.10;99.90;;;;;;4985045;28;20495;-70
2023/06/20 05:22:17;;;;;;;15.00;13.40;;;20.10;99.90;;;;;;4973008;28;20511;-70
2023/06/20 05:24:43;;;;;;;22.10;15.10;;;20.10;99.90;;;;;;4982888;28;20463;-70
2023/06/20 05:27:10;;;;;;;20.63;15.80;;;20.20;99.90;;;;;;4974342;28;20451;-69
2023/06/20 05:29:37;;;;;;;18.80;14.07;;;20.20;99.90;;;;;;4974608;28;20452;-69
2023/06/20 05:32:04;;;;;;;21.10;13.63;;;20.20;99.90;;;;;;4973964;28;20952;-70
2023/06/20 05:34:31;;;;;;;17.30;13.90;;;20.20;99.90;;;;;;4986203;28;20541;-70
2023/06/20 05:37:00;;;;;;;21.70;15.60;;;20.20;99.90;;;;;;4977599;28;20459;-70
2023/06/20 05:39:27;;;;;;;18.57;13.93;;;20.30;99.90;;;;;;4989703;28;20491;-69
2023/06/20 05:41:56;;;;;;;20.37;15.63;;;20.30;99.90;;;;;;4974027;28;20452;-70
2023/06/20 05:44:23;;;;;;;31.23;14.93;;;20.30;99.90;;;;;;4973955;28;20906;-69
2023/06/20 05:46:49;;;;;;;16.93;14.97;;;20.30;99.90;;;;;;4981119;28;20456;-68
2023/06/20 05:49:16;;;;;;;19.43;14.97;;;20.40;99.90;;;;;;4974212;28;20514;-68
2023/06/20 05:51:44;;;;;;;21.23;15.90;;;20.40;99.90;;;;;;4980342;28;20867;-69
2023/06/20 05:54:13;;;;;;;24.03;16.80;;;20.40;99.90;;;;;;4975479;28;20475;-68
2023/06/20 05:56:40;;;;;;;21.20;16.27;;;20.40;99.90;;;;;;4973399;28;20868;-69
2023/06/20 05:59:06;;;;;;;27.57;18.10;;;20.50;99.90;;;;;;4973551;28;20780;-69
2023/06/20 06:01:33;;;;;;;23.73;17.47;;;20.50;99.90;;;;;;4974240;28;20487;-69
2023/06/20 06:04:01;;;;;;;20.13;16.83;;;20.50;99.90;;;;;;4979934;28;20475;-72
2023/06/20 06:06:28;;;;;;;26.33;17.33;;;20.70;99.90;;;;;;4984932;28;20967;-70
2023/06/20 06:08:55;;;;;;;23.47;17.00;;;20.90;99.90;;;;;;4983533;28;20452;-70
2023/06/20 06:11:22;;;;;;;23.10;16.57;;;21.00;99.90;;;;;;4980380;28;20555;-70
2023/06/20 06:13:50;;;;;;;20.40;16.90;;;21.20;99.90;;;;;;4973604;28;20901;-70
2023/06/20 06:16:17;;;;;;;21.30;14.83;;;21.20;99.90;;;;;;4973552;28;20467;-69
2023/06/20 06:18:44;;;;;;;22.30;15.63;;;21.20;99.90;;;;;;4976076;28;20467;-69
2023/06/20 06:21:11;;;;;;;20.57;14.40;;;21.20;99.90;;;;;;4978793;28;20467;-69
2023/06/20 06:23:38;;;;;;;21.03;15.50;;;21.30;99.90;;;;;;4973198;28;20992;-70
2023/06/20 06:26:05;;;;;;;16.10;13.80;;;21.70;99.90;;;;;;4974058;28;20548;-72
2023/06/20 06:28:33;;;;;;;13.50;11.80;;;21.90;99.90;;;;;;4985383;28;20463;-71
2023/06/20 06:31:00;;;;;;;17.33;12.33;;;22.00;99.90;;;;;;4979170;28;20459;-70
2023/06/20 06:33:29;;;;;;;13.10;11.67;;;22.10;99.90;;;;;;4972577;28;20539;-71
2023/06/20 06:35:56;;;;;;;17.27;11.90;;;22.50;99.90;;;;;;4972191;28;20452;-71
2023/06/20 06:38:25;;;;;;;15.23;10.53;;;22.60;99.90;;;;;;4981041;28;21070;-73
2023/06/20 06:40:54;;;;;;;14.13;10.50;;;22.90;99.90;;;;;;4972507;28;20529;-71
2023/06/20 06:43:21;;;;;;;16.73;11.33;;;23.20;99.90;;;;;;4980989;28;20511;-70
2023/06/20 06:45:49;;;;;;;14.30;11.63;;;23.50;99.90;;;;;;4971944;28;21007;-71
2023/06/20 06:48:15;;;;;;;16.70;10.93;;;23.50;99.90;;;;;;4981405;28;21030;-70
2023/06/20 06:50:43;;;;;;;11.70;10.40;;;23.50;99.90;;;;;;4978560;28;20474;-69
2023/06/20 06:53:10;;;;;;;13.70;10.57;;;23.60;99.90;;;;;;4973790;28;20539;-71
2023/06/20 06:55:37;;;;;;;11.73;10.10;;;23.70;99.90;;;;;;4974167;28;20460;-71
2023/06/20 06:58:03;;;;;;;13.53;10.53;;;23.80;99.90;;;;;;4973746;28;20945;-71
2023/06/20 07:00:30;;;;;;;10.13;9.17;;;24.20;99.90;;;;;;4972789;28;20988;-72
2023/06/20 07:02:58;;;;;;;14.43;11.10;;;24.60;99.90;;;;;;4973025;28;21001;-71
2023/06/20 07:05:26;;;;;;;10.40;9.27;;;25.00;99.90;;;;;;4979955;28;20452;-71
2023/06/20 07:07:53;;;;;;;12.97;9.47;;;25.20;99.90;;;;;;4975958;28;20469;-71
2023/06/20 07:10:19;;;;;;;9.63;8.60;;;25.30;99.90;;;;;;4973215;28;20444;-71
2023/06/20 07:12:46;;;;;;;12.70;9.23;;;25.30;99.90;;;;;;4971780;28;20728;-71
2023/06/20 07:15:13;;;;;;;11.77;10.53;;;25.10;99.90;;;;;;4971585;28;20455;-73
2023/06/20 07:17:39;;;;;;;11.87;10.33;;;25.00;99.90;;;;;;4973175;28;20972;-74
2023/06/20 07:20:09;;;;;;;17.73;11.17;;;24.80;99.90;;;;;;4977832;28;20522;-74
2023/06/20 07:22:36;;;;;;;14.37;11.00;;;24.60;99.90;;;;;;4971735;28;20480;-75
2023/06/20 07:25:02;;;;;;;11.77;10.30;;;24.40;99.90;;;;;;4971659;28;20460;-74
2023/06/20 07:27:29;;;;;;;15.43;11.90;;;24.30;99.90;;;;;;4971785;28;20456;-74
2023/06/20 07:29:56;;;;;;;12.80;11.00;;;24.10;99.90;;;;;;4975530;28;20464;-74
2023/06/20 07:32:23;;;;;;;15.30;11.60;;;24.00;99.90;;;;;;4976023;28;20464;-74
2023/06/20 07:34:49;;;;;;;12.70;10.80;;;23.90;99.90;;;;;;4979622;28;20460;-74
2023/06/20 07:37:17;;;;;;;14.43;11.13;;;23.90;99.90;;;;;;4971090;28;20526;-74
2023/06/20 07:39:46;;;;;;;11.60;10.50;;;24.20;99.90;;;;;;4987563;28;20479;-73
2023/06/20 07:42:13;;;;;;;12.03;10.83;;;24.50;99.90;;;;;;4972247;28;20467;-74
2023/06/20 07:44:40;;;;;;;14.23;11.33;;;24.80;99.90;;;;;;4972530;28;20885;-73
2023/06/20 07:47:07;;;;;;;11.93;10.77;;;24.90;99.90;;;;;;4981222;28;20812;-73
2023/06/20 07:49:34;;;;;;;12.30;9.97;;;25.10;99.90;;;;;;4974898;28;20470;-72
2023/06/20 07:52:00;;;;;;;14.80;11.97;;;25.20;99.90;;;;;;4971797;28;20461;-73
2023/06/20 07:54:28;;;;;;;13.30;11.17;;;25.30;99.90;;;;;;4971029;28;20512;-73
2023/06/20 07:56:56;;;;;;;17.10;11.60;;;25.30;99.90;;;;;;4971413;28;20459;-72
2023/06/20 07:59:22;;;;;;;16.23;11.43;;;25.50;99.90;;;;;;4971065;28;20586;-73
2023/06/20 08:01:49;;;;;;;12.63;11.23;;;25.50;99.90;;;;;;4971221;28;20455;-73
2023/06/20 08:04:16;;;;;;;14.37;12.37;;;25.80;99.90;;;;;;4972296;28;20526;-74
2023/06/20 08:06:42;;;;;;;13.93;11.73;;;26.00;99.90;;;;;;4970741;28;20452;-74
2023/06/20 08:09:09;;;;;;;13.20;11.53;;;26.10;99.90;;;;;;4973839;28;20459;-71
2023/06/20 08:11:37;;;;;;;14.30;10.80;;;26.20;99.90;;;;;;4971249;28;20463;-73
2023/06/20 08:14:04;;;;;;;14.67;12.20;;;26.40;99.90;;;;;;4978644;28;20470;-71
2023/06/20 08:16:31;;;;;;;13.10;11.73;;;26.50;99.90;;;;;;4972009;28;20868;-73
2023/06/20 08:18:58;;;;;;;12.93;11.17;;;26.50;99.90;;;;;;4977513;28;20451;-72
2023/06/20 08:21:24;;;;;;;13.00;10.83;;;26.60;99.90;;;;;;4973958;28;20491;-74
2023/06/20 08:23:51;;;;;;;13.17;11.70;;;26.90;99.90;;;;;;4971020;28;20534;-75
2023/06/20 08:26:18;;;;;;;16.00;13.47;;;27.10;99.90;;;;;;4971196;28;20456;-74
2023/06/20 08:28:46;;;;;;;16.07;13.60;;;26.80;99.90;;;;;;4974866;28;20487;-74
2023/06/20 08:31:12;;;;;;;14.27;12.77;;;26.50;99.90;;;;;;4972387;28;20456;-71
2023/06/20 08:33:39;;;;;;;13.20;11.90;;;26.50;99.90;;;;;;4971508;28;20987;-71
2023/06/20 08:36:05;;;;;;;15.03;13.23;;;26.70;99.90;;;;;;4976569;28;20468;-74
2023/06/20 08:38:32;;;;;;;15.27;12.20;;;26.80;99.90;;;;;;4979077;28;20456;-71
2023/06/20 08:40:59;;;;;;;13.20;11.90;;;27.10;99.90;;;;;;4970867;28;20548;-72
2023/06/20 08:43:28;;;;;;;13.83;12.30;;;27.30;99.90;;;;;;4970630;28;20472;-72
2023/06/20 08:45:56;;;;;;;15.67;14.10;;;27.40;99.90;;;;;;4970461;28;20546;-72
2023/06/20 08:48:23;;;;;;;14.40;12.77;;;27.40;99.90;;;;;;4978424;28;20510;-73
2023/06/20 08:50:51;;;;;;;16.63;14.30;;;27.30;99.90;;;;;;4974829;28;20510;-73
2023/06/20 08:53:18;;;;;;;14.37;12.53;;;27.20;99.90;;;;;;4974297;28;20480;-73
2023/06/20 08:55:45;;;;;;;17.33;13.60;;;27.10;99.90;;;;;;4974525;28;20460;-73
2023/06/20 08:58:12;;;;;;;15.43;13.93;;;27.00;99.90;;;;;;4979314;28;21034;-72
2023/06/20 09:00:39;;;;;;;18.77;14.07;;;27.00;99.90;;;;;;4976190;28;20488;-72
2023/06/20 09:03:07;;;;;;;16.70;14.97;;;26.80;99.90;;;;;;4975828;28;20482;-72
2023/06/20 09:05:41;;;;;;;19.63;14.17;;;26.70;99.90;;;;;;4975706;28;20491;-72
2023/06/20 09:08:08;;;;;;;16.60;14.63;;;26.60;99.90;;;;;;4976741;28;20470;-72
2023/06/20 09:10:36;;;;;;;16.50;14.80;;;26.70;99.90;;;;;;4981272;28;21030;-72
2023/06/20 09:13:06;;;;;;;18.23;13.87;;;26.80;99.90;;;;;;4978217;28;20491;-72
2023/06/20 09:15:33;;;;;;;18.33;14.90;;;26.80;99.90;;;;;;4974401;28;20460;-72
2023/06/20 09:18:01;;;;;;;15.23;13.63;;;27.10;99.90;;;;;;4977138;28;21046;-72
2023/06/20 09:20:31;;;;;;;21.07;16.43;;;27.20;99.90;;;;;;4975103;28;20494;-72
2023/06/20 09:22:58;;;;;;;21.30;15.10;;;27.10;99.90;;;;;;4973564;28;21059;-73
2023/06/20 09:25:26;;;;;;;17.17;15.20;;;27.10;99.90;;;;;;4981897;28;20462;-73
2023/06/20 09:27:55;;;;;;;22.00;18.40;;;27.20;99.90;;;;;;4973714;28;20502;-72
2023/06/20 09:30:22;;;;;;;21.37;17.27;;;27.30;99.90;;;;;;4973811;28;20448;-72
2023/06/20 09:32:49;;;;;;;19.20;15.60;;;27.40;99.90;;;;;;4981608;28;20501;-72
2023/06/20 09:35:17;;;;;;;19.67;15.00;;;27.40;99.90;;;;;;4974836;28;20459;-73
2023/06/20 09:37:47;;;;;;;16.03;14.20;;;27.30;99.90;;;;;;4978485;28;20467;-72
2023/06/20 09:40:15;;;;;;;19.03;16.00;;;27.40;99.90;;;;;;4976031;28;21042;-72
2023/06/20 09:42:42;;;;;;;15.63;14.00;;;27.70;99.90;;;;;;4973275;28;20934;-71
2023/06/20 09:45:10;;;;;;;18.47;15.10;;;27.90;99.90;;;;;;4981654;28;20516;-71
2023/06/20 09:47:39;;;;;;;18.53;16.33;;;28.10;99.90;;;;;;4975957;28;20459;-72
2023/06/20 09:50:07;;;;;;;20.33;15.20;;;28.20;99.90;;;;;;4973630;28;20867;-71
2023/06/20 09:52:39;;;;;;;18.87;16.90;;;28.30;99.90;;;;;;4974713;28;20558;-71
2023/06/20 09:55:11;;;;;;;27.23;18.53;;;28.20;99.90;;;;;;4980262;28;20555;-72
2023/06/20 09:57:42;;;;;;;22.07;17.80;;;28.20;99.90;;;;;;4974282;28;20538;-71
2023/06/20 10:00:14;;;;;;;21.23;16.33;;;27.90;99.90;;;;;;4973201;28;20494;-71
2023/06/20 10:02:45;;;;;;;17.77;15.87;;;27.80;99.90;;;;;;4973585;28;20519;-72
2023/06/20 10:05:14;;;;;;;17.83;16.03;;;28.00;99.90;;;;;;4976216;28;20506;-72
2023/06/20 10:07:42;;;;;;;19.30;17.40;;;28.10;99.90;;;;;;4973749;28;20456;-72
2023/06/20 10:10:11;;;;;;;20.20;17.33;;;28.20;99.90;;;;;;4980989;28;20448;-72
2023/06/20 10:12:39;;;;;;;24.47;16.03;;;28.10;99.90;;;;;;4978390;28;20479;-72
2023/06/20 10:15:08;;;;;;;18.20;16.30;;;28.00;99.90;;;;;;4973394;28;20456;-71
2023/06/20 10:17:39;;;;;;;17.87;16.03;;;28.00;99.90;;;;;;4973898;28;20987;-72
2023/06/20 10:20:08;;;;;;;22.40;16.63;;;28.20;99.90;;;;;;4979923;28;20534;-71
2023/06/20 10:22:36;;;;;;;19.73;17.80;;;28.10;99.90;;;;;;4973611;28;20649;-71
2023/06/20 10:25:11;;;;;;;19.67;15.93;;;27.90;99.90;;;;;;4976018;28;20515;-71
2023/06/20 10:27:40;;;;;;;16.40;14.23;;;28.10;99.90;;;;;;4978960;28;20455;-71
2023/06/20 10:30:08;;;;;;;14.13;12.63;;;28.40;99.90;;;;;;4980342;28;20455;-71
2023/06/20 10:32:35;;;;;;;15.40;13.80;;;28.50;99.90;;;;;;4978330;28;20910;-71
2023/06/20 10:35:08;;;;;;;14.93;13.33;;;28.80;99.90;;;;;;4981209;28;20456;-71
2023/06/20 10:37:38;;;;;;;17.07;14.40;;;28.60;99.90;;;;;;4976047;28;20487;-71
2023/06/20 10:40:07;;;;;;;17.83;14.53;;;28.60;99.90;;;;;;4978226;28;20456;-72
2023/06/20 10:42:41;;;;;;;16.70;15.00;;;28.50;99.90;;;;;;4972885;28;20926;-72
2023/06/20 10:45:17;;;;;;;16.60;14.50;;;28.60;99.90;;;;;;4973300;28;20507;-72
2023/06/20 10:47:44;;;;;;;19.80;15.70;;;28.70;99.90;;;;;;4972944;28;20455;-72
2023/06/20 10:50:12;;;;;;;17.30;15.40;;;28.70;99.90;;;;;;4978922;28;20499;-72
2023/06/20 10:52:39;;;;;;;15.30;13.70;;;28.70;99.90;;;;;;4973473;28;20479;-73
2023/06/20 10:55:09;;;;;;;17.57;15.40;;;28.80;99.90;;;;;;4978618;28;20455;-72
2023/06/20 10:57:35;;;;;;;15.60;14.00;;;28.40;99.90;;;;;;4976950;28;20452;-72
2023/06/20 11:00:09;;;;;;;14.93;13.43;;;28.50;99.90;;;;;;4972592;28;20936;-72
2023/06/20 11:02:36;;;;;;;16.50;13.07;;;28.70;99.90;;;;;;4977233;28;20540;-71
2023/06/20 11:05:04;;;;;;;14.23;12.67;;;28.80;99.90;;;;;;4979332;28;20515;-71
2023/06/20 11:07:30;;;;;;;14.27;12.77;;;28.70;99.90;;;;;;4973941;28;20894;-71
2023/06/20 11:09:57;;;;;;;15.63;14.00;;;28.60;99.90;;;;;;4978563;28;20464;-72
2023/06/20 11:12:24;;;;;;;13.60;12.30;;;28.80;99.90;;;;;;4971286;28;20483;-72
2023/06/20 11:14:50;;;;;;;16.33;11.50;;;28.80;99.90;;;;;;4972330;28;20528;-72
2023/06/20 11:17:18;;;;;;;12.23;11.10;;;28.90;99.90;;;;;;4972284;28;20456;-71
2023/06/20 11:19:45;;;;;;;14.53;11.10;;;29.00;99.90;;;;;;4978717;28;20462;-72
2023/06/20 11:22:12;;;;;;;16.33;11.20;;;28.90;99.90;;;;;;4976828;28;20522;-72
2023/06/20 11:24:39;;;;;;;11.90;10.67;;;28.80;99.90;;;;;;4972485;28;20456;-72
2023/06/20 11:27:13;;;;;;;10.77;9.63;;;28.90;99.90;;;;;;4972806;28;20945;-72
2023/06/20 11:29:40;;;;;;;9.53;8.63;;;28.80;99.90;;;;;;4983756;28;20469;-72
2023/06/20 11:32:10;;;;;;;11.00;10.00;;;29.00;99.90;;;;;;4974719;28;20656;-71
2023/06/20 11:34:56;;;;;;;10.77;9.50;;;29.50;99.90;;;;;;4977383;28;20521;-71
2023/06/20 11:37:23;;;;;;;9.33;8.50;;;30.00;99.90;;;;;;4972525;28;20451;-72
2023/06/20 11:39:50;;;;;;;9.97;8.33;;;30.30;99.90;;;;;;4979506;28;20486;-72
2023/06/20 11:42:17;;;;;;;12.20;9.83;;;30.40;99.90;;;;;;4977159;28;20538;-72
2023/06/20 11:44:43;;;;;;;9.17;8.33;;;30.70;99.90;;;;;;4971932;28;20464;-72
2023/06/20 11:47:10;;;;;;;11.50;8.53;;;30.90;99.90;;;;;;4972102;28;20463;-72
2023/06/20 11:49:41;;;;;;;10.87;9.57;;;30.80;99.90;;;;;;4977174;28;20462;-72
2023/06/20 11:52:10;;;;;;;10.67;9.60;;;31.10;99.90;;;;;;4971186;28;20467;-72
2023/06/20 11:54:49;;;;;;;9.93;9.00;;;31.20;99.90;;;;;;4976789;28;20975;-71
2023/06/20 11:57:24;;;;;;;10.13;9.10;;;31.30;99.90;;;;;;4972848;28;20452;-72
2023/06/20 11:59:50;;;;;;;9.90;8.90;;;31.30;99.90;;;;;;4972016;28;20455;-72
2023/06/20 12:02:17;;;;;;;10.10;8.87;;;31.40;99.90;;;;;;4971239;28;20499;-72
2023/06/20 12:04:44;;;;;;;10.90;8.23;;;31.40;99.90;;;;;;4972002;28;20475;-72
2023/06/20 12:07:18;;;;;;;10.13;9.13;;;31.20;99.90;;;;;;4975662;28;20456;-72
2023/06/20 12:09:44;;;;;;;10.10;9.20;;;31.20;99.90;;;;;;4976583;28;20452;-72
2023/06/20 12:12:11;;;;;;;9.80;8.90;;;31.30;99.90;;;;;;4971817;28;20472;-72
2023/06/20 12:14:38;;;;;;;9.37;8.47;;;31.40;99.90;;;;;;4971149;28;20456;-73
2023/06/20 12:17:05;;;;;;;10.13;9.10;;;31.40;99.90;;;;;;4970861;28;20506;-73
2023/06/20 12:19:32;;;;;;;11.37;9.50;;;31.80;99.90;;;;;;4972564;28;20452;-73
2023/06/20 12:21:59;;;;;;;9.57;8.67;;;32.10;99.90;;;;;;4971794;28;20484;-73
2023/06/20 12:24:28;;;;;;;10.60;9.70;;;32.00;99.90;;;;;;4970315;28;21007;-73
2023/06/20 12:26:54;;;;;;;12.73;10.07;;;31.70;99.90;;;;;;4970834;28;21004;-74
2023/06/20 12:29:21;;;;;;;10.07;9.10;;;31.30;99.90;;;;;;4975004;28;20471;-73
2023/06/20 12:31:48;;;;;;;11.50;9.77;;;31.10;99.90;;;;;;4973114;28;20504;-73
2023/06/20 12:34:15;;;;;;;10.50;8.90;;;31.10;99.90;;;;;;4970830;28;20471;-72